createdAt,value
2016-10-28T00:00:58.401Z,12.63
2016-10-28T00:01:58.421Z,12.65
2016-10-28T00:02:58.448Z,12.61
2016-10-28T00:03:58.477Z,12.62
2016-10-28T00:04:58.484Z,12.58
2016-10-28T00:05:58.188Z,12.63
2016-10-28T00:06:58.514Z,12.57
2016-10-28T00:07:58.549Z,12.65
2016-10-28T00:08:58.579Z,12.62
2016-10-28T00:09:58.568Z,12.63
2016-10-28T00:10:57.963Z,12.63
2016-10-28T00:11:58.300Z,12.61
2016-10-28T00:12:58.322Z,12.72
2016-10-28T00:13:58.645Z,12.63
2016-10-28T00:14:58.385Z,12.61
2016-10-28T00:15:58.705Z,12.66
2016-10-28T00:16:58.724Z,12.58
2016-10-28T00:17:58.423Z,12.63
2016-10-28T00:18:58.443Z,12.68
2016-10-28T00:19:58.449Z,12.61
2016-10-28T00:20:58.826Z,12.66
2016-10-28T00:21:58.804Z,12.58
2016-10-28T00:22:58.818Z,12.65
2016-10-28T00:23:58.843Z,12.65
2016-10-28T00:24:58.248Z,12.58
2016-10-28T00:25:58.579Z,12.62
2016-10-28T00:26:58.897Z,12.65
2016-10-28T00:27:58.611Z,12.62
2016-10-28T00:28:58.938Z,12.58
2016-10-28T00:29:58.657Z,12.66
2016-10-28T00:30:58.671Z,12.66
2016-10-28T00:31:59.009Z,12.62
2016-10-28T00:32:58.704Z,12.57
2016-10-28T00:33:59.028Z,12.62
2016-10-28T00:34:58.738Z,12.58
2016-10-28T00:35:59.122Z,12.62
2016-10-28T00:36:58.808Z,12.61
2016-10-28T00:37:59.114Z,12.62
2016-10-28T00:38:58.826Z,12.62
2016-10-28T00:39:59.159Z,12.65
2016-10-28T00:40:59.173Z,12.58
2016-10-28T00:41:58.898Z,12.61
2016-10-28T00:42:59.213Z,12.61
2016-10-28T00:43:59.237Z,12.63
2016-10-28T00:44:58.930Z,12.61
2016-10-28T00:45:58.650Z,12.53
2016-10-28T00:47:09.626Z,12.57
2016-10-28T00:47:59.309Z,12.58
2016-10-28T00:48:59.380Z,12.51
2016-10-28T00:49:58.725Z,12.58
2016-10-28T00:50:59.053Z,12.57
2016-10-28T00:51:59.068Z,12.61
2016-10-28T00:52:59.418Z,12.57
2016-10-28T00:53:59.477Z,12.57
2016-10-28T00:54:59.445Z,12.58
2016-10-28T00:55:59.477Z,12.53
2016-10-28T00:56:59.197Z,12.55
2016-10-28T00:57:58.898Z,12.65
2016-10-28T00:58:59.307Z,12.51
2016-10-28T00:59:59.659Z,12.61
2016-10-28T01:00:59.625Z,12.62
2016-10-28T01:01:58.975Z,12.45
2016-10-28T01:02:59.608Z,12.57
2016-10-28T01:03:59.673Z,12.51
2016-10-28T01:04:59.648Z,12.44
2016-10-28T01:05:59.670Z,12.5
2016-10-28T01:06:59.396Z,12.43
2016-10-28T01:07:59.687Z,12.48
2016-10-28T01:08:59.721Z,12.5
2016-10-28T01:09:59.902Z,12.57
2016-10-28T01:10:59.467Z,12.43
2016-10-28T01:11:59.165Z,12.44
2016-10-28T01:12:59.798Z,12.43
2016-10-28T01:13:59.875Z,12.48
2016-10-28T01:14:59.587Z,12.45
2016-10-28T01:15:59.866Z,12.58
2016-10-28T01:16:59.578Z,12.61
2016-10-28T01:17:59.906Z,12.44
2016-10-28T01:18:59.903Z,12.48
2016-10-28T01:19:59.941Z,12.51
2016-10-28T01:20:59.334Z,12.5
2016-10-28T01:21:59.967Z,12.61
2016-10-28T01:22:59.804Z,12.5
2016-10-28T01:24:00.034Z,12.5
2016-10-28T01:25:00.120Z,12.47
2016-10-28T01:25:59.827Z,12.62
2016-10-28T01:27:00.079Z,12.61
2016-10-28T01:27:59.809Z,12.54
2016-10-28T01:29:00.188Z,12.45
2016-10-28T01:30:00.151Z,12.44
2016-10-28T01:30:59.678Z,12.53
2016-10-28T01:32:00.162Z,12.57
2016-10-28T01:32:59.929Z,12.62
2016-10-28T01:34:00.257Z,12.58
2016-10-28T01:35:00.063Z,12.5
2016-10-28T01:36:00.271Z,12.65
2016-10-28T01:37:00.337Z,12.62
2016-10-28T01:38:00.310Z,12.63
2016-10-28T01:39:00.312Z,12.63
2016-10-28T01:40:00.029Z,12.58
2016-10-28T01:41:00.355Z,12.55
2016-10-28T01:42:00.378Z,12.63
2016-10-28T01:42:59.768Z,12.62
2016-10-28T01:44:00.421Z,12.62
2016-10-28T01:45:00.450Z,12.63
2016-10-28T01:46:00.167Z,12.61
2016-10-28T01:47:00.481Z,12.55
2016-10-28T01:48:00.199Z,12.58
2016-10-28T01:49:00.532Z,12.58
2016-10-28T01:50:00.302Z,12.58
2016-10-28T01:51:00.601Z,12.58
2016-10-28T01:52:00.648Z,12.61
2016-10-28T01:53:00.579Z,12.63
2016-10-28T01:54:00.307Z,12.61
2016-10-28T01:55:00.635Z,12.58
2016-10-28T01:56:00.662Z,12.62
2016-10-28T01:57:00.677Z,12.53
2016-10-28T01:58:00.684Z,12.55
2016-10-28T01:59:00.092Z,12.48
2016-10-28T02:00:00.116Z,12.44
2016-10-28T02:01:00.759Z,12.51
2016-10-28T02:02:00.769Z,12.48
2016-10-28T02:03:00.794Z,12.53
2016-10-28T02:04:00.502Z,12.47
2016-10-28T02:05:00.843Z,12.48
2016-10-28T02:06:00.841Z,12.44
2016-10-28T02:07:00.557Z,12.45
2016-10-28T02:08:00.903Z,12.39
2016-10-28T02:09:00.910Z,12.39
2016-10-28T02:10:00.619Z,12.44
2016-10-28T02:11:00.953Z,12.44
2016-10-28T02:12:00.972Z,12.4
2016-10-28T02:13:00.682Z,12.43
2016-10-28T02:14:01.005Z,12.43
2016-10-28T02:15:01.030Z,12.48
2016-10-28T02:16:01.092Z,12.48
2016-10-28T02:17:01.073Z,12.53
2016-10-28T02:18:01.084Z,12.48
2016-10-28T02:19:01.105Z,12.51
2016-10-28T02:20:00.817Z,12.51
2016-10-28T02:21:01.154Z,12.57
2016-10-28T02:22:01.181Z,12.57
2016-10-28T02:23:01.214Z,12.57
2016-10-28T02:24:01.222Z,12.57
2016-10-28T02:25:00.923Z,12.61
2016-10-28T02:26:01.032Z,12.5
2016-10-28T02:27:00.948Z,12.44
2016-10-28T02:28:01.302Z,12.48
2016-10-28T02:29:01.349Z,12.48
2016-10-28T02:30:01.011Z,12.5
2016-10-28T02:31:01.455Z,12.48
2016-10-28T02:32:01.068Z,12.53
2016-10-28T02:33:01.064Z,12.48
2016-10-28T02:34:01.097Z,12.48
2016-10-28T02:35:01.108Z,12.54
2016-10-28T02:36:01.434Z,12.53
2016-10-28T02:37:01.236Z,12.5
2016-10-28T02:38:00.848Z,12.5
2016-10-28T02:39:01.507Z,12.53
2016-10-28T02:40:01.211Z,12.47
2016-10-28T02:41:01.604Z,12.45
2016-10-28T02:42:01.258Z,12.45
2016-10-28T02:43:01.597Z,12.48
2016-10-28T02:44:01.668Z,12.57
2016-10-28T02:45:01.619Z,12.45
2016-10-28T02:46:01.020Z,12.45
2016-10-28T02:47:01.659Z,12.5
2016-10-28T02:48:01.449Z,12.58
2016-10-28T02:49:01.381Z,12.61
2016-10-28T02:50:01.730Z,12.57
2016-10-28T02:51:01.791Z,12.68
2016-10-28T02:52:01.871Z,12.61
2016-10-28T02:53:01.875Z,12.7
2016-10-28T02:54:01.490Z,12.73
2016-10-28T02:55:01.883Z,12.68
2016-10-28T02:56:01.532Z,12.7
2016-10-28T02:57:01.853Z,12.7
2016-10-28T02:58:01.909Z,12.72
2016-10-28T02:59:01.903Z,12.73
2016-10-28T03:00:01.922Z,12.81
2016-10-28T03:01:01.931Z,12.73
2016-10-28T03:02:01.663Z,12.72
2016-10-28T03:03:01.699Z,12.78
2016-10-28T03:04:02.014Z,12.76
2016-10-28T03:05:02.103Z,12.75
2016-10-28T03:06:02.051Z,12.7
2016-10-28T03:07:01.807Z,12.75
2016-10-28T03:08:02.087Z,12.72
2016-10-28T03:09:01.783Z,12.72
2016-10-28T03:10:01.812Z,12.7
2016-10-28T03:11:01.842Z,12.76
2016-10-28T03:12:01.913Z,12.73
2016-10-28T03:13:01.928Z,12.75
2016-10-28T03:14:02.206Z,12.73
2016-10-28T03:15:01.952Z,12.72
2016-10-28T03:16:01.933Z,12.75
2016-10-28T03:17:02.402Z,12.7
2016-10-28T03:18:02.283Z,12.73
2016-10-28T03:19:02.403Z,12.72
2016-10-28T03:20:02.004Z,12.72
2016-10-28T03:21:02.133Z,12.68
2016-10-28T03:22:02.042Z,12.72
2016-10-28T03:23:02.374Z,12.76
2016-10-28T03:24:02.390Z,12.72
2016-10-28T03:25:02.117Z,12.7
2016-10-28T03:26:02.472Z,12.73
2016-10-28T03:27:02.177Z,12.72
2016-10-28T03:28:02.231Z,12.72
2016-10-28T03:29:02.536Z,12.7
2016-10-28T03:30:02.528Z,12.72
2016-10-28T03:31:02.266Z,12.7
2016-10-28T03:32:02.353Z,12.75
2016-10-28T03:33:02.590Z,12.75
2016-10-28T03:34:02.596Z,12.75
2016-10-28T03:35:02.612Z,12.73
2016-10-28T03:36:02.643Z,12.76
2016-10-28T03:37:02.345Z,12.84
2016-10-28T03:38:02.662Z,12.83
2016-10-28T03:39:02.393Z,12.83
2016-10-28T03:40:02.718Z,12.95
2016-10-28T03:41:02.728Z,12.99
2016-10-28T03:42:02.787Z,12.94
2016-10-28T03:43:02.757Z,12.93
2016-10-28T03:44:02.485Z,12.93
2016-10-28T03:45:02.829Z,12.88
2016-10-28T03:46:02.853Z,12.86
2016-10-28T03:47:02.858Z,12.99
2016-10-28T03:48:02.879Z,12.86
2016-10-28T03:49:02.588Z,12.87
2016-10-28T03:50:02.905Z,13.01
2016-10-28T03:51:02.990Z,13.05
2016-10-28T03:52:03.199Z,12.93
2016-10-28T03:53:02.655Z,12.95
2016-10-28T03:54:02.998Z,12.93
2016-10-28T03:55:03.019Z,12.88
2016-10-28T03:56:03.126Z,12.9
2016-10-28T03:57:02.744Z,12.91
2016-10-28T03:58:03.088Z,12.95
2016-10-28T03:59:03.099Z,12.91
2016-10-28T04:00:03.115Z,12.99
2016-10-28T04:01:03.148Z,12.95
2016-10-28T04:02:02.893Z,13.01
2016-10-28T04:03:03.178Z,12.93
2016-10-28T04:04:03.101Z,12.94
2016-10-28T04:05:03.119Z,13.06
2016-10-28T04:06:03.540Z,12.99
2016-10-28T04:07:02.947Z,13.01
2016-10-28T04:08:03.167Z,13.02
2016-10-28T04:09:03.448Z,13.01
2016-10-28T04:10:03.455Z,13.01
2016-10-28T04:11:03.019Z,13.01
2016-10-28T04:12:03.487Z,13.05
2016-10-28T04:13:03.070Z,12.99
2016-10-28T04:14:02.769Z,12.95
2016-10-28T04:15:03.472Z,12.98
2016-10-28T04:16:03.111Z,12.99
2016-10-28T04:17:03.210Z,12.99
2016-10-28T04:18:03.219Z,13.08
2016-10-28T04:19:03.680Z,13.09
2016-10-28T04:20:03.600Z,13.12
2016-10-28T04:21:03.733Z,13.09
2016-10-28T04:22:03.647Z,13.11
2016-10-28T04:23:03.674Z,13.16
2016-10-28T04:24:03.280Z,13.09
2016-10-28T04:25:04.252Z,13.09
2016-10-28T04:26:03.629Z,13.03
2016-10-28T04:27:03.482Z,13.06
2016-10-28T04:28:03.670Z,13.12
2016-10-28T04:29:03.783Z,13.09
2016-10-28T04:30:03.637Z,13.2
2016-10-28T04:31:04.246Z,13.23
2016-10-28T04:32:03.767Z,13.06
2016-10-28T04:33:03.801Z,13.06
2016-10-28T04:34:03.639Z,13.17
2016-10-28T04:35:03.824Z,13.2
2016-10-28T04:36:03.929Z,13.17
2016-10-28T04:37:03.855Z,13.21
2016-10-28T04:38:03.750Z,13.23
2016-10-28T04:39:03.886Z,13.2
2016-10-28T04:40:04.393Z,13.13
2016-10-28T04:41:03.735Z,13.17
2016-10-28T04:42:04.089Z,13.2
2016-10-28T04:43:03.713Z,13.26
2016-10-28T04:44:04.020Z,13.2
2016-10-28T04:45:04.462Z,13.19
2016-10-28T04:46:04.074Z,13.23
2016-10-28T04:47:04.052Z,13.19
2016-10-28T04:48:03.819Z,13.16
2016-10-28T04:49:04.129Z,13.19
2016-10-28T04:50:03.807Z,13.26
2016-10-28T04:51:03.831Z,13.23
2016-10-28T04:52:03.851Z,13.26
2016-10-28T04:53:04.181Z,13.13
2016-10-28T04:54:03.886Z,13.21
2016-10-28T04:55:04.213Z,13.21
2016-10-28T04:56:04.231Z,13.26
2016-10-28T04:57:04.263Z,13.27
2016-10-28T04:58:03.969Z,13.27
2016-10-28T04:59:04.347Z,13.24
2016-10-28T05:00:04.322Z,13.31
2016-10-28T05:01:04.537Z,13.23
2016-10-28T05:02:04.419Z,13.24
2016-10-28T05:03:04.120Z,13.21
2016-10-28T05:04:04.394Z,13.27
2016-10-28T05:05:04.417Z,13.27
2016-10-28T05:06:04.132Z,13.27
2016-10-28T05:07:04.138Z,13.26
2016-10-28T05:08:04.168Z,13.36
2016-10-28T05:09:04.186Z,13.3
2016-10-28T05:10:04.661Z,13.36
2016-10-28T05:11:04.752Z,13.33
2016-10-28T05:12:03.992Z,13.3
2016-10-28T05:13:04.567Z,13.37
2016-10-28T05:14:04.611Z,13.27
2016-10-28T05:15:04.323Z,13.39
2016-10-28T05:16:04.740Z,13.39
2016-10-28T05:17:04.340Z,13.37
2016-10-28T05:18:04.142Z,13.37
2016-10-28T05:19:04.693Z,13.37
2016-10-28T05:20:04.719Z,13.36
2016-10-28T05:21:04.741Z,13.37
2016-10-28T05:22:04.443Z,13.45
2016-10-28T05:23:04.468Z,13.4
2016-10-28T05:24:04.492Z,13.37
2016-10-28T05:25:05.056Z,13.39
2016-10-28T05:26:04.531Z,13.42
2016-10-28T05:27:04.858Z,13.4
2016-10-28T05:28:04.561Z,13.33
2016-10-28T05:29:04.590Z,13.37
2016-10-28T05:30:04.610Z,13.4
2016-10-28T05:31:04.628Z,13.37
2016-10-28T05:32:04.861Z,13.36
2016-10-28T05:33:04.681Z,13.36
2016-10-28T05:34:04.387Z,13.39
2016-10-28T05:35:04.706Z,13.4
2016-10-28T05:36:04.744Z,13.4
2016-10-28T05:37:05.056Z,13.39
2016-10-28T05:38:04.770Z,13.37
2016-10-28T05:39:05.091Z,13.43
2016-10-28T05:40:05.181Z,13.4
2016-10-28T05:41:05.143Z,13.4
2016-10-28T05:42:04.862Z,13.46
2016-10-28T05:43:04.570Z,13.36
2016-10-28T05:44:05.181Z,13.4
2016-10-28T05:45:05.206Z,13.37
2016-10-28T05:46:04.941Z,13.39
2016-10-28T05:47:04.988Z,13.36
2016-10-28T05:48:04.974Z,13.33
2016-10-28T05:49:04.991Z,13.4
2016-10-28T05:50:05.318Z,13.39
2016-10-28T05:51:05.027Z,13.37
2016-10-28T05:52:05.061Z,13.42
2016-10-28T05:53:05.376Z,13.39
2016-10-28T05:54:05.414Z,13.31
2016-10-28T05:55:05.200Z,13.39
2016-10-28T05:56:04.814Z,13.4
2016-10-28T05:57:05.469Z,13.36
2016-10-28T05:58:05.166Z,13.43
2016-10-28T05:59:05.180Z,13.33
2016-10-28T06:00:05.631Z,13.31
2016-10-28T06:01:05.604Z,13.36
2016-10-28T06:02:05.247Z,13.43
2016-10-28T06:03:04.968Z,13.23
2016-10-28T06:04:05.608Z,13.27
2016-10-28T06:05:05.097Z,13.28
2016-10-28T06:06:05.329Z,13.43
2016-10-28T06:07:05.670Z,13.3
2016-10-28T06:08:05.684Z,13.4
2016-10-28T06:09:05.897Z,13.36
2016-10-28T06:10:05.711Z,13.42
2016-10-28T06:11:05.498Z,13.4
2016-10-28T06:12:05.470Z,13.42
2016-10-28T06:13:05.802Z,13.45
2016-10-28T06:14:05.861Z,13.45
2016-10-28T06:15:05.514Z,13.49
2016-10-28T06:16:05.846Z,13.49
2016-10-28T06:17:05.557Z,13.47
2016-10-28T06:18:05.888Z,13.47
2016-10-28T06:19:05.611Z,13.47
2016-10-28T06:20:05.625Z,13.5
2016-10-28T06:21:06.141Z,13.43
2016-10-28T06:22:05.658Z,13.46
2016-10-28T06:23:05.700Z,13.55
2016-10-28T06:24:05.685Z,13.55
2016-10-28T06:25:06.027Z,13.55
2016-10-28T06:26:05.746Z,13.54
2016-10-28T06:27:05.510Z,13.58
2016-10-28T06:28:05.511Z,13.62
2016-10-28T06:29:06.158Z,13.61
2016-10-28T06:30:06.132Z,13.6
2016-10-28T06:31:05.849Z,13.64
2016-10-28T06:32:05.873Z,13.64
2016-10-28T06:33:05.919Z,13.58
2016-10-28T06:34:05.907Z,13.62
2016-10-28T06:35:06.217Z,13.64
2016-10-28T06:36:05.947Z,13.64
2016-10-28T06:37:06.267Z,13.68
2016-10-28T06:38:05.673Z,13.7
2016-10-28T06:39:06.029Z,13.64
2016-10-28T06:40:06.325Z,13.64
2016-10-28T06:41:05.768Z,13.73
2016-10-28T06:42:06.390Z,13.73
2016-10-28T06:43:06.080Z,13.71
2016-10-28T06:44:06.264Z,13.73
2016-10-28T06:45:06.165Z,13.73
2016-10-28T06:46:06.194Z,13.75
2016-10-28T06:47:06.478Z,13.7
2016-10-28T06:48:06.489Z,13.68
2016-10-28T06:49:06.194Z,13.78
2016-10-28T06:50:06.303Z,13.85
2016-10-28T06:51:06.236Z,13.78
2016-10-28T06:52:06.596Z,13.89
2016-10-28T06:53:06.278Z,13.86
2016-10-28T06:54:06.607Z,13.79
2016-10-28T06:55:06.635Z,13.86
2016-10-28T06:56:06.644Z,13.86
2016-10-28T06:57:06.872Z,13.83
2016-10-28T06:58:06.727Z,13.85
2016-10-28T06:59:06.401Z,13.86
2016-10-28T07:00:06.721Z,13.94
2016-10-28T07:01:06.437Z,13.85
2016-10-28T07:02:06.479Z,13.79
2016-10-28T07:03:06.849Z,13.91
2016-10-28T07:04:06.513Z,13.83
2016-10-28T07:05:06.837Z,13.85
2016-10-28T07:06:06.827Z,13.83
2016-10-28T07:07:07.176Z,13.97
2016-10-28T07:08:06.894Z,13.94
2016-10-28T07:09:06.862Z,13.98
2016-10-28T07:10:07.846Z,13.95
2016-10-28T07:11:07.164Z,13.93
2016-10-28T07:12:07.137Z,13.95
2016-10-28T07:13:06.892Z,13.94
2016-10-28T07:14:07.164Z,13.93
2016-10-28T07:15:06.588Z,14.05
2016-10-28T07:16:06.916Z,13.93
2016-10-28T07:17:06.862Z,14
2016-10-28T07:18:06.905Z,14.01
2016-10-28T07:19:07.246Z,13.97
2016-10-28T07:20:07.308Z,13.98
2016-10-28T07:21:07.176Z,13.95
2016-10-28T07:22:07.258Z,14.03
2016-10-28T07:23:07.925Z,14.03
2016-10-28T07:24:07.285Z,14
2016-10-28T07:25:06.965Z,13.98
2016-10-28T07:26:07.288Z,13.95
2016-10-28T07:27:06.974Z,14.05
2016-10-28T07:28:07.308Z,14.05
2016-10-28T07:29:06.999Z,14.08
2016-10-28T07:30:07.349Z,14.05
2016-10-28T07:31:07.919Z,14.08
2016-10-28T07:32:07.375Z,14.07
2016-10-28T07:33:07.406Z,14.07
2016-10-28T07:34:07.124Z,14.07
2016-10-28T07:35:06.820Z,14.07
2016-10-28T07:36:07.159Z,14.12
2016-10-28T07:37:07.627Z,14.13
2016-10-28T07:38:07.185Z,14.13
2016-10-28T07:39:06.914Z,14.15
2016-10-28T07:40:07.598Z,14.12
2016-10-28T07:41:07.276Z,14.12
2016-10-28T07:42:07.605Z,14.12
2016-10-28T07:43:07.617Z,14.12
2016-10-28T07:44:07.647Z,14.19
2016-10-28T07:45:07.669Z,14.16
2016-10-28T07:46:07.715Z,14.2
2016-10-28T07:47:07.707Z,14.08
2016-10-28T07:48:07.714Z,14.15
2016-10-28T07:49:07.412Z,14.2
2016-10-28T07:50:07.887Z,14.22
2016-10-28T07:51:07.803Z,14.19
2016-10-28T07:52:07.818Z,14.2
2016-10-28T07:53:07.891Z,14.19
2016-10-28T07:54:07.944Z,14.19
2016-10-28T07:55:07.864Z,14.18
2016-10-28T07:56:07.887Z,14.25
2016-10-28T07:57:07.599Z,14.22
2016-10-28T07:58:07.943Z,14.19
2016-10-28T07:59:07.323Z,14.18
2016-10-28T08:00:07.976Z,14.19
2016-10-28T08:01:07.744Z,14.18
2016-10-28T08:02:08.135Z,14.25
2016-10-28T08:03:08.024Z,14.16
2016-10-28T08:04:08.144Z,14.18
2016-10-28T08:05:07.801Z,14.19
2016-10-28T08:06:08.184Z,14.3
2016-10-28T08:07:07.814Z,14.31
2016-10-28T08:08:08.138Z,14.33
2016-10-28T08:09:08.188Z,14.34
2016-10-28T08:10:08.442Z,14.26
2016-10-28T08:11:07.982Z,14.23
2016-10-28T08:12:08.212Z,14.2
2016-10-28T08:13:08.244Z,14.31
2016-10-28T08:14:08.252Z,14.31
2016-10-28T08:15:07.973Z,14.31
2016-10-28T08:16:07.674Z,14.23
2016-10-28T08:17:08.108Z,14.26
2016-10-28T08:18:08.333Z,14.2
2016-10-28T08:19:08.362Z,14.28
2016-10-28T08:20:08.384Z,14.28
2016-10-28T08:21:08.104Z,14.3
2016-10-28T08:22:08.413Z,14.26
2016-10-28T08:23:08.436Z,14.26
2016-10-28T08:24:08.445Z,14.3
2016-10-28T08:25:08.171Z,14.26
2016-10-28T08:26:08.511Z,14.33
2016-10-28T08:27:08.535Z,14.3
2016-10-28T08:28:08.373Z,14.23
2016-10-28T08:29:08.248Z,14.37
2016-10-28T08:30:08.600Z,14.37
2016-10-28T08:31:08.602Z,14.4
2016-10-28T08:32:08.314Z,14.31
2016-10-28T08:33:08.333Z,14.36
2016-10-28T08:34:08.049Z,14.44
2016-10-28T08:35:08.692Z,14.45
2016-10-28T08:36:08.402Z,14.36
2016-10-28T08:37:08.415Z,14.37
2016-10-28T08:38:08.738Z,14.41
2016-10-28T08:39:08.450Z,14.41
2016-10-28T08:40:08.796Z,14.33
2016-10-28T08:41:08.505Z,14.36
2016-10-28T08:42:08.838Z,14.37
2016-10-28T08:43:08.852Z,14.44
2016-10-28T08:44:08.874Z,14.45
2016-10-28T08:45:08.895Z,14.36
2016-10-28T08:46:08.924Z,14.41
2016-10-28T08:47:08.933Z,14.43
2016-10-28T08:48:08.330Z,14.4
2016-10-28T08:49:08.658Z,14.38
2016-10-28T08:50:09.005Z,14.2
2016-10-28T08:51:09.063Z,14.23
2016-10-28T08:52:08.740Z,14.19
2016-10-28T08:53:08.810Z,14.28
2016-10-28T08:54:09.114Z,14.19
2016-10-28T08:55:08.792Z,14.19
2016-10-28T08:56:09.137Z,14.19
2016-10-28T08:57:08.553Z,14.19
2016-10-28T08:58:09.164Z,14.04
2016-10-28T08:59:09.193Z,14.2
2016-10-28T09:00:09.197Z,14.13
2016-10-28T09:01:08.602Z,14.11
2016-10-28T09:02:09.259Z,14.19
2016-10-28T09:03:08.946Z,14.12
2016-10-28T09:04:09.293Z,14.13
2016-10-28T09:05:09.405Z,14.05
2016-10-28T09:06:09.054Z,14.13
2016-10-28T09:07:09.066Z,14.11
2016-10-28T09:08:09.076Z,14.18
2016-10-28T09:09:09.082Z,14.18
2016-10-28T09:10:09.101Z,14.23
2016-10-28T09:11:09.434Z,14.23
2016-10-28T09:12:09.140Z,14.31
2016-10-28T09:13:09.242Z,14.3
2016-10-28T09:14:09.430Z,14.41
2016-10-28T09:15:09.342Z,14.38
2016-10-28T09:16:09.237Z,14.44
2016-10-28T09:17:09.255Z,14.41
2016-10-28T09:18:09.272Z,14.4
2016-10-28T09:19:09.588Z,14.45
2016-10-28T09:20:09.308Z,14.38
2016-10-28T09:21:09.673Z,14.48
2016-10-28T09:22:09.663Z,14.45
2016-10-28T09:23:09.695Z,14.49
2016-10-28T09:24:09.743Z,14.44
2016-10-28T09:25:09.738Z,14.49
2016-10-28T09:26:09.727Z,14.44
2016-10-28T09:27:09.151Z,14.53
2016-10-28T09:28:09.791Z,14.58
2016-10-28T09:29:09.925Z,14.53
2016-10-28T09:30:09.857Z,14.55
2016-10-28T09:31:09.868Z,14.62
2016-10-28T09:32:09.925Z,14.61
2016-10-28T09:33:09.580Z,14.59
2016-10-28T09:34:09.632Z,14.58
2016-10-28T09:35:09.930Z,14.56
2016-10-28T09:36:09.975Z,14.55
2016-10-28T09:37:09.974Z,14.55
2016-10-28T09:38:09.689Z,14.63
2016-10-28T09:39:09.723Z,14.56
2016-10-28T09:40:09.777Z,14.58
2016-10-28T09:41:09.444Z,14.53
2016-10-28T09:42:10.143Z,14.67
2016-10-28T09:43:10.175Z,14.67
2016-10-28T09:44:10.189Z,14.61
2016-10-28T09:45:09.908Z,14.66
2016-10-28T09:46:09.551Z,14.67
2016-10-28T09:47:10.024Z,14.67
2016-10-28T09:48:09.902Z,14.67
2016-10-28T09:49:10.255Z,14.63
2016-10-28T09:50:10.256Z,14.67
2016-10-28T09:51:10.001Z,14.67
2016-10-28T09:52:10.291Z,14.7
2016-10-28T09:53:10.025Z,14.7
2016-10-28T09:54:10.385Z,14.73
2016-10-28T09:55:10.415Z,14.85
2016-10-28T09:56:10.363Z,14.73
2016-10-28T09:57:10.113Z,14.7
2016-10-28T09:58:10.106Z,14.56
2016-10-28T09:59:10.130Z,14.62
2016-10-28T10:00:10.479Z,14.55
2016-10-28T10:01:10.467Z,14.51
2016-10-28T10:02:10.514Z,14.36
2016-10-28T10:03:10.525Z,14.36
2016-10-28T10:04:10.614Z,14.31
2016-10-28T10:05:10.558Z,14.31
2016-10-28T10:06:10.344Z,14.22
2016-10-28T10:07:10.603Z,14.31
2016-10-28T10:08:10.620Z,14.4
2016-10-28T10:09:10.654Z,14.36
2016-10-28T10:10:10.675Z,14.43
2016-10-28T10:11:10.387Z,14.28
2016-10-28T10:12:10.702Z,14.38
2016-10-28T10:13:10.721Z,14.4
2016-10-28T10:14:10.753Z,14.34
2016-10-28T10:15:10.785Z,14.33
2016-10-28T10:16:10.793Z,14.3
2016-10-28T10:17:10.513Z,14.22
2016-10-28T10:18:10.216Z,14.22
2016-10-28T10:19:10.860Z,14.28
2016-10-28T10:20:10.579Z,14.18
2016-10-28T10:21:10.903Z,14.2
2016-10-28T10:22:10.626Z,14.08
2016-10-28T10:23:10.631Z,14.15
2016-10-28T10:24:11.014Z,14.18
2016-10-28T10:25:10.981Z,14.19
2016-10-28T10:26:10.705Z,14.2
2016-10-28T10:27:11.052Z,14.23
2016-10-28T10:28:11.064Z,14.2
2016-10-28T10:29:10.765Z,14.2
2016-10-28T10:30:10.772Z,14.26
2016-10-28T10:31:11.100Z,14.34
2016-10-28T10:32:11.144Z,14.36
2016-10-28T10:33:11.156Z,14.31
2016-10-28T10:34:10.854Z,14.3
2016-10-28T10:35:11.188Z,14.33
2016-10-28T10:36:11.231Z,14.33
2016-10-28T10:37:11.284Z,14.33
2016-10-28T10:38:10.944Z,14.36
2016-10-28T10:39:10.971Z,14.38
2016-10-28T10:40:10.993Z,14.38
2016-10-28T10:41:11.328Z,14.38
2016-10-28T10:42:11.409Z,14.41
2016-10-28T10:43:11.048Z,14.4
2016-10-28T10:44:11.478Z,14.41
2016-10-28T10:45:11.425Z,14.36
2016-10-28T10:46:11.435Z,14.4
2016-10-28T10:47:11.456Z,14.41
2016-10-28T10:48:11.141Z,14.36
2016-10-28T10:49:11.492Z,14.36
2016-10-28T10:50:11.232Z,14.4
2016-10-28T10:51:11.222Z,14.43
2016-10-28T10:52:11.550Z,14.48
2016-10-28T10:53:11.272Z,14.36
2016-10-28T10:54:11.595Z,14.4
2016-10-28T10:55:11.675Z,14.34
2016-10-28T10:56:11.321Z,14.43
2016-10-28T10:57:11.696Z,14.4
2016-10-28T10:58:11.675Z,14.37
2016-10-28T10:59:11.704Z,14.51
2016-10-28T11:00:11.736Z,14.41
2016-10-28T11:01:11.774Z,14.48
2016-10-28T11:02:11.766Z,14.4
2016-10-28T11:03:11.622Z,14.52
2016-10-28T11:04:11.803Z,14.52
2016-10-28T11:05:11.890Z,14.43
2016-10-28T11:06:11.911Z,14.43
2016-10-28T11:07:11.964Z,14.43
2016-10-28T11:08:11.574Z,14.4
2016-10-28T11:09:11.916Z,14.45
2016-10-28T11:10:11.304Z,14.43
2016-10-28T11:11:11.661Z,14.45
2016-10-28T11:12:11.979Z,14.48
2016-10-28T11:13:11.973Z,14.49
2016-10-28T11:14:12.008Z,14.48
2016-10-28T11:15:12.017Z,14.53
2016-10-28T11:16:11.802Z,14.45
2016-10-28T11:17:11.769Z,14.49
2016-10-28T11:18:12.104Z,14.43
2016-10-28T11:19:11.803Z,14.51
2016-10-28T11:20:12.173Z,14.51
2016-10-28T11:21:11.895Z,14.43
2016-10-28T11:22:12.173Z,14.51
2016-10-28T11:23:11.928Z,14.49
2016-10-28T11:24:12.223Z,14.52
2016-10-28T11:25:12.247Z,14.52
2016-10-28T11:26:12.264Z,14.48
2016-10-28T11:27:12.292Z,14.43
2016-10-28T11:28:11.995Z,14.49
2016-10-28T11:29:12.344Z,14.49
2016-10-28T11:30:12.352Z,14.49
2016-10-28T11:31:12.374Z,14.44
2016-10-28T11:32:12.384Z,14.43
2016-10-28T11:33:12.432Z,14.45
2016-10-28T11:34:12.432Z,14.43
2016-10-28T11:35:12.513Z,14.49
2016-10-28T11:36:12.474Z,14.38
2016-10-28T11:37:12.192Z,14.51
2016-10-28T11:38:12.510Z,14.52
2016-10-28T11:39:12.225Z,14.49
2016-10-28T11:40:12.561Z,14.49
2016-10-28T11:41:12.262Z,14.45
2016-10-28T11:42:12.723Z,14.48
2016-10-28T11:43:12.608Z,14.48
2016-10-28T11:44:12.685Z,14.43
2016-10-28T11:45:12.344Z,14.45
2016-10-28T11:46:12.684Z,14.44
2016-10-28T11:47:12.691Z,14.51
2016-10-28T11:48:12.720Z,14.51
2016-10-28T11:49:12.430Z,14.45
2016-10-28T11:50:12.805Z,14.48
2016-10-28T11:51:12.475Z,14.43
2016-10-28T11:52:12.803Z,14.49
2016-10-28T11:53:12.831Z,14.45
2016-10-28T11:54:12.536Z,14.45
2016-10-28T11:55:12.878Z,14.38
2016-10-28T11:56:12.893Z,14.38
2016-10-28T11:57:12.632Z,14.38
2016-10-28T11:58:12.637Z,14.44
2016-10-28T11:59:12.643Z,14.38
2016-10-28T12:00:12.982Z,14.41
2016-10-28T12:01:12.694Z,14.45
2016-10-28T12:02:12.714Z,14.43
2016-10-28T12:03:13.026Z,14.44
2016-10-28T12:04:13.068Z,14.44
2016-10-28T12:05:13.094Z,14.36
2016-10-28T12:06:12.790Z,14.43
2016-10-28T12:07:13.117Z,14.31
2016-10-28T12:08:13.179Z,14.38
2016-10-28T12:09:12.866Z,14.41
2016-10-28T12:10:13.296Z,14.33
2016-10-28T12:11:13.222Z,14.38
2016-10-28T12:12:12.912Z,14.3
2016-10-28T12:13:13.234Z,14.34
2016-10-28T12:14:13.252Z,14.37
2016-10-28T12:15:13.286Z,14.36
2016-10-28T12:16:13.291Z,14.45
2016-10-28T12:17:13.335Z,14.4
2016-10-28T12:18:13.341Z,14.36
2016-10-28T12:19:12.738Z,14.38
2016-10-28T12:20:13.077Z,14.44
2016-10-28T12:21:13.509Z,14.43
2016-10-28T12:22:13.115Z,14.37
2016-10-28T12:23:13.127Z,14.43
2016-10-28T12:24:13.483Z,14.49
2016-10-28T12:25:13.512Z,14.49
2016-10-28T12:26:13.518Z,14.49
2016-10-28T12:27:13.534Z,14.45
2016-10-28T12:28:13.560Z,14.43
2016-10-28T12:29:13.583Z,14.43
2016-10-28T12:30:13.745Z,14.38
2016-10-28T12:31:13.638Z,14.4
2016-10-28T12:32:13.690Z,14.37
2016-10-28T12:33:13.665Z,14.36
2016-10-28T12:34:13.694Z,14.41
2016-10-28T12:35:13.944Z,14.37
2016-10-28T12:36:13.409Z,14.43
2016-10-28T12:37:13.426Z,14.41
2016-10-28T12:38:13.966Z,14.38
2016-10-28T12:39:14.016Z,14.38
2016-10-28T12:40:14.011Z,14.4
2016-10-28T12:41:14.030Z,14.4
2016-10-28T12:42:13.587Z,14.36
2016-10-28T12:43:13.564Z,14.4
2016-10-28T12:44:13.645Z,14.43
2016-10-28T12:45:14.195Z,14.48
2016-10-28T12:46:13.988Z,14.45
2016-10-28T12:47:14.241Z,14.45
2016-10-28T12:48:14.044Z,14.51
2016-10-28T12:49:14.406Z,14.55
2016-10-28T12:50:14.083Z,14.44
2016-10-28T12:51:14.188Z,14.55
2016-10-28T12:52:14.117Z,14.44
2016-10-28T12:53:14.391Z,14.49
2016-10-28T12:54:13.790Z,14.43
2016-10-28T12:55:13.851Z,14.45
2016-10-28T12:56:14.078Z,14.44